sensor_id;sensor_type;location;lat;lon;timestamp;P1;durP1;ratioP1;P2;durP2;ratioP2
58446;SDS011;44240;51.840;7.258;2023-11-18T00:01:32;29.38;;;14.00;;
58446;SDS011;44240;51.840;7.258;2023-11-18T00:03:59;29.00;;;14.77;;
58446;SDS011;44240;51.840;7.258;2023-11-18T00:06:26;33.30;;;15.43;;
58446;SDS011;44240;51.840;7.258;2023-11-18T00:08:54;29.65;;;14.38;;
58446;SDS011;44240;51.840;7.258;2023-11-18T00:11:21;29.52;;;15.32;;
58446;SDS011;44240;51.840;7.258;2023-11-18T00:13:48;28.45;;;14.52;;
58446;SDS011;44240;51.840;7.258;2023-11-18T00:16:15;26.33;;;14.35;;
58446;SDS011;44240;51.840;7.258;2023-11-18T00:18:43;29.63;;;14.55;;
58446;SDS011;44240;51.840;7.258;2023-11-18T00:21:10;29.75;;;14.10;;
58446;SDS011;44240;51.840;7.258;2023-11-18T00:23:36;26.80;;;14.50;;
58446;SDS011;44240;51.840;7.258;2023-11-18T00:26:03;26.65;;;13.32;;
58446;SDS011;44240;51.840;7.258;2023-11-18T00:28:33;25.80;;;13.73;;
58446;SDS011;44240;51.840;7.258;2023-11-18T00:31:00;28.58;;;14.27;;
58446;SDS011;44240;51.840;7.258;2023-11-18T00:33:27;26.38;;;14.07;;
58446;SDS011;44240;51.840;7.258;2023-11-18T00:35:53;26.73;;;14.02;;
58446;SDS011;44240;51.840;7.258;2023-11-18T00:38:20;22.52;;;12.60;;
58446;SDS011;44240;51.840;7.258;2023-11-18T00:40:48;26.13;;;13.23;;
58446;SDS011;44240;51.840;7.258;2023-11-18T00:43:14;25.17;;;12.13;;
58446;SDS011;44240;51.840;7.258;2023-11-18T00:45:41;23.08;;;12.15;;
58446;SDS011;44240;51.840;7.258;2023-11-18T00:48:09;26.30;;;13.10;;
58446;SDS011;44240;51.840;7.258;2023-11-18T00:50:36;23.13;;;12.30;;
58446;SDS011;44240;51.840;7.258;2023-11-18T00:53:03;27.35;;;14.13;;
58446;SDS011;44240;51.840;7.258;2023-11-18T00:55:31;26.10;;;12.98;;
58446;SDS011;44240;51.840;7.258;2023-11-18T00:57:58;27.40;;;13.55;;
58446;SDS011;44240;51.840;7.258;2023-11-18T01:00:25;26.25;;;13.10;;
58446;SDS011;44240;51.840;7.258;2023-11-18T01:02:52;33.05;;;14.23;;
58446;SDS011;44240;51.840;7.258;2023-11-18T01:05:20;27.02;;;13.52;;
58446;SDS011;44240;51.840;7.258;2023-11-18T01:07:47;53.00;;;17.63;;
58446;SDS011;44240;51.840;7.258;2023-11-18T01:10:14;30.42;;;13.82;;
58446;SDS011;44240;51.840;7.258;2023-11-18T01:12:41;32.47;;;14.68;;
58446;SDS011;44240;51.840;7.258;2023-11-18T01:15:11;32.20;;;14.77;;
58446;SDS011;44240;51.840;7.258;2023-11-18T01:17:38;29.17;;;13.10;;
58446;SDS011;44240;51.840;7.258;2023-11-18T01:20:06;24.98;;;12.95;;
58446;SDS011;44240;51.840;7.258;2023-11-18T01:22:37;26.90;;;13.48;;
58446;SDS011;44240;51.840;7.258;2023-11-18T01:25:05;28.73;;;13.52;;
58446;SDS011;44240;51.840;7.258;2023-11-18T01:27:32;28.83;;;12.98;;
58446;SDS011;44240;51.840;7.258;2023-11-18T01:30:00;28.00;;;15.95;;
58446;SDS011;44240;51.840;7.258;2023-11-18T01:32:27;30.90;;;14.63;;
58446;SDS011;44240;51.840;7.258;2023-11-18T01:34:56;31.70;;;13.80;;
58446;SDS011;44240;51.840;7.258;2023-11-18T01:37:23;31.10;;;14.25;;
58446;SDS011;44240;51.840;7.258;2023-11-18T01:39:50;34.38;;;14.90;;
58446;SDS011;44240;51.840;7.258;2023-11-18T01:42:17;29.90;;;14.75;;
58446;SDS011;44240;51.840;7.258;2023-11-18T01:44:44;31.95;;;14.80;;
58446;SDS011;44240;51.840;7.258;2023-11-18T01:47:11;27.63;;;13.52;;
58446;SDS011;44240;51.840;7.258;2023-11-18T01:49:38;23.40;;;13.38;;
58446;SDS011;44240;51.840;7.258;2023-11-18T01:52:07;24.65;;;12.38;;
58446;SDS011;44240;51.840;7.258;2023-11-18T01:54:39;31.13;;;14.20;;
58446;SDS011;44240;51.840;7.258;2023-11-18T01:57:06;27.08;;;13.10;;
58446;SDS011;44240;51.840;7.258;2023-11-18T01:59:35;33.33;;;14.73;;
58446;SDS011;44240;51.840;7.258;2023-11-18T02:02:04;25.52;;;12.68;;
58446;SDS011;44240;51.840;7.258;2023-11-18T02:04:31;31.10;;;15.05;;
58446;SDS011;44240;51.840;7.258;2023-11-18T02:06:58;28.60;;;13.10;;
58446;SDS011;44240;51.840;7.258;2023-11-18T02:09:25;27.05;;;13.32;;
58446;SDS011;44240;51.840;7.258;2023-11-18T02:15:01;25.55;;;11.57;;
58446;SDS011;44240;51.840;7.258;2023-11-18T02:17:37;26.02;;;12.25;;
58446;SDS011;44240;51.840;7.258;2023-11-18T02:20:08;24.50;;;13.20;;
58446;SDS011;44240;51.840;7.258;2023-11-18T02:22:42;27.10;;;13.38;;
58446;SDS011;44240;51.840;7.258;2023-11-18T02:25:09;31.00;;;14.65;;
58446;SDS011;44240;51.840;7.258;2023-11-18T02:27:40;33.55;;;13.98;;
58446;SDS011;44240;51.840;7.258;2023-11-18T02:30:07;32.13;;;14.65;;
58446;SDS011;44240;51.840;7.258;2023-11-18T02:32:46;28.52;;;13.38;;
58446;SDS011;44240;51.840;7.258;2023-11-18T02:35:23;31.52;;;14.35;;
58446;SDS011;44240;51.840;7.258;2023-11-18T02:37:54;30.50;;;13.55;;
58446;SDS011;44240;51.840;7.258;2023-11-18T02:40:29;30.95;;;15.30;;
58446;SDS011;44240;51.840;7.258;2023-11-18T02:43:00;29.38;;;13.65;;
58446;SDS011;44240;51.840;7.258;2023-11-18T02:45:27;36.28;;;16.77;;
58446;SDS011;44240;51.840;7.258;2023-11-18T02:47:54;31.27;;;15.18;;
58446;SDS011;44240;51.840;7.258;2023-11-18T02:50:24;35.80;;;14.38;;
58446;SDS011;44240;51.840;7.258;2023-11-18T02:52:51;33.38;;;14.30;;
58446;SDS011;44240;51.840;7.258;2023-11-18T02:55:18;31.73;;;13.95;;
58446;SDS011;44240;51.840;7.258;2023-11-18T02:57:47;32.35;;;13.52;;
58446;SDS011;44240;51.840;7.258;2023-11-18T03:00:15;32.72;;;13.98;;
58446;SDS011;44240;51.840;7.258;2023-11-18T03:02:48;31.02;;;14.75;;
58446;SDS011;44240;51.840;7.258;2023-11-18T03:05:16;31.58;;;14.13;;
58446;SDS011;44240;51.840;7.258;2023-11-18T03:07:47;31.23;;;13.13;;
58446;SDS011;44240;51.840;7.258;2023-11-18T03:10:16;29.95;;;13.18;;
58446;SDS011;44240;51.840;7.258;2023-11-18T03:12:49;30.15;;;14.10;;
58446;SDS011;44240;51.840;7.258;2023-11-18T03:15:18;33.50;;;14.63;;
58446;SDS011;44240;51.840;7.258;2023-11-18T03:17:46;34.10;;;14.23;;
58446;SDS011;44240;51.840;7.258;2023-11-18T03:20:16;28.60;;;14.30;;
58446;SDS011;44240;51.840;7.258;2023-11-18T03:22:44;32.80;;;14.27;;
58446;SDS011;44240;51.840;7.258;2023-11-18T03:25:14;27.10;;;13.32;;
58446;SDS011;44240;51.840;7.258;2023-11-18T03:27:42;30.05;;;13.50;;
58446;SDS011;44240;51.840;7.258;2023-11-18T03:30:10;36.13;;;14.75;;
58446;SDS011;44240;51.840;7.258;2023-11-18T03:32:38;29.48;;;13.32;;
58446;SDS011;44240;51.840;7.258;2023-11-18T03:35:08;29.98;;;13.15;;
58446;SDS011;44240;51.840;7.258;2023-11-18T03:37:36;24.77;;;12.18;;
58446;SDS011;44240;51.840;7.258;2023-11-18T03:40:08;27.83;;;12.85;;
58446;SDS011;44240;51.840;7.258;2023-11-18T03:42:39;26.83;;;13.02;;
58446;SDS011;44240;51.840;7.258;2023-11-18T03:45:07;25.48;;;12.02;;
58446;SDS011;44240;51.840;7.258;2023-11-18T03:47:35;26.85;;;11.57;;
58446;SDS011;44240;51.840;7.258;2023-11-18T03:50:02;28.33;;;11.88;;
58446;SDS011;44240;51.840;7.258;2023-11-18T03:52:29;31.40;;;12.52;;
58446;SDS011;44240;51.840;7.258;2023-11-18T03:54:56;23.05;;;11.20;;
58446;SDS011;44240;51.840;7.258;2023-11-18T03:57:23;29.30;;;13.23;;
58446;SDS011;44240;51.840;7.258;2023-11-18T03:59:50;26.23;;;12.20;;
58446;SDS011;44240;51.840;7.258;2023-11-18T04:02:16;27.65;;;11.45;;
58446;SDS011;44240;51.840;7.258;2023-11-18T04:04:44;24.83;;;10.88;;
58446;SDS011;44240;51.840;7.258;2023-11-18T04:07:11;27.60;;;12.55;;
58446;SDS011;44240;51.840;7.258;2023-11-18T04:09:37;29.52;;;12.48;;
58446;SDS011;44240;51.840;7.258;2023-11-18T04:12:07;26.02;;;12.25;;
58446;SDS011;44240;51.840;7.258;2023-11-18T04:14:34;24.92;;;11.95;;
58446;SDS011;44240;51.840;7.258;2023-11-18T04:17:01;26.58;;;12.85;;
58446;SDS011;44240;51.840;7.258;2023-11-18T04:19:28;25.02;;;13.13;;
58446;SDS011;44240;51.840;7.258;2023-11-18T04:21:55;24.55;;;11.88;;
58446;SDS011;44240;51.840;7.258;2023-11-18T04:24:22;28.00;;;12.13;;
58446;SDS011;44240;51.840;7.258;2023-11-18T04:26:48;27.92;;;12.77;;
58446;SDS011;44240;51.840;7.258;2023-11-18T04:29:16;23.17;;;10.77;;
58446;SDS011;44240;51.840;7.258;2023-11-18T04:31:44;26.98;;;12.80;;
58446;SDS011;44240;51.840;7.258;2023-11-18T04:34:11;22.38;;;11.43;;
58446;SDS011;44240;51.840;7.258;2023-11-18T04:36:38;24.05;;;11.90;;
58446;SDS011;44240;51.840;7.258;2023-11-18T04:39:06;24.17;;;12.27;;
58446;SDS011;44240;51.840;7.258;2023-11-18T04:41:33;27.52;;;12.38;;
58446;SDS011;44240;51.840;7.258;2023-11-18T04:44:00;26.02;;;11.55;;
58446;SDS011;44240;51.840;7.258;2023-11-18T04:46:27;24.90;;;11.80;;
58446;SDS011;44240;51.840;7.258;2023-11-18T04:48:54;25.75;;;11.50;;
58446;SDS011;44240;51.840;7.258;2023-11-18T04:51:21;22.25;;;11.18;;
58446;SDS011;44240;51.840;7.258;2023-11-18T04:53:51;24.92;;;11.52;;
58446;SDS011;44240;51.840;7.258;2023-11-18T04:56:18;27.08;;;13.00;;
58446;SDS011;44240;51.840;7.258;2023-11-18T04:58:45;27.02;;;11.90;;
58446;SDS011;44240;51.840;7.258;2023-11-18T05:01:14;26.20;;;11.55;;
58446;SDS011;44240;51.840;7.258;2023-11-18T05:03:41;25.50;;;12.32;;
58446;SDS011;44240;51.840;7.258;2023-11-18T05:06:07;26.90;;;12.25;;
58446;SDS011;44240;51.840;7.258;2023-11-18T05:08:34;26.30;;;10.57;;
58446;SDS011;44240;51.840;7.258;2023-11-18T05:11:02;25.60;;;12.00;;
58446;SDS011;44240;51.840;7.258;2023-11-18T05:13:31;22.55;;;11.23;;
58446;SDS011;44240;51.840;7.258;2023-11-18T05:15:59;22.83;;;11.60;;
58446;SDS011;44240;51.840;7.258;2023-11-18T05:18:26;23.83;;;12.80;;
58446;SDS011;44240;51.840;7.258;2023-11-18T05:20:56;21.27;;;11.32;;
58446;SDS011;44240;51.840;7.258;2023-11-18T05:23:23;26.67;;;12.68;;
58446;SDS011;44240;51.840;7.258;2023-11-18T05:25:50;26.13;;;12.40;;
58446;SDS011;44240;51.840;7.258;2023-11-18T05:28:17;26.10;;;13.00;;
58446;SDS011;44240;51.840;7.258;2023-11-18T05:30:44;24.50;;;11.98;;
58446;SDS011;44240;51.840;7.258;2023-11-18T05:33:11;27.52;;;13.30;;
58446;SDS011;44240;51.840;7.258;2023-11-18T05:35:46;24.92;;;12.18;;
58446;SDS011;44240;51.840;7.258;2023-11-18T05:38:16;24.25;;;12.50;;
58446;SDS011;44240;51.840;7.258;2023-11-18T05:40:47;27.27;;;12.20;;
58446;SDS011;44240;51.840;7.258;2023-11-18T05:43:24;27.20;;;12.38;;
58446;SDS011;44240;51.840;7.258;2023-11-18T05:45:55;30.90;;;13.52;;
58446;SDS011;44240;51.840;7.258;2023-11-18T05:48:43;25.80;;;11.68;;
58446;SDS011;44240;51.840;7.258;2023-11-18T05:51:11;26.60;;;13.02;;
58446;SDS011;44240;51.840;7.258;2023-11-18T05:53:41;25.73;;;12.18;;
58446;SDS011;44240;51.840;7.258;2023-11-18T05:56:12;23.85;;;11.60;;
58446;SDS011;44240;51.840;7.258;2023-11-18T05:58:40;25.65;;;11.75;;
58446;SDS011;44240;51.840;7.258;2023-11-18T06:01:06;23.33;;;12.18;;
58446;SDS011;44240;51.840;7.258;2023-11-18T06:03:34;26.42;;;12.07;;
58446;SDS011;44240;51.840;7.258;2023-11-18T06:06:07;25.83;;;12.55;;
58446;SDS011;44240;51.840;7.258;2023-11-18T06:08:36;29.25;;;12.68;;
58446;SDS011;44240;51.840;7.258;2023-11-18T06:11:07;24.20;;;11.60;;
58446;SDS011;44240;51.840;7.258;2023-11-18T06:13:44;24.65;;;12.50;;
58446;SDS011;44240;51.840;7.258;2023-11-18T06:16:16;25.35;;;12.65;;
58446;SDS011;44240;51.840;7.258;2023-11-18T06:18:51;27.02;;;12.50;;
58446;SDS011;44240;51.840;7.258;2023-11-18T06:21:20;25.15;;;11.52;;
58446;SDS011;44240;51.840;7.258;2023-11-18T06:23:50;21.83;;;10.70;;
58446;SDS011;44240;51.840;7.258;2023-11-18T06:26:17;29.88;;;14.43;;
58446;SDS011;44240;51.840;7.258;2023-11-18T06:28:45;27.00;;;13.15;;
58446;SDS011;44240;51.840;7.258;2023-11-18T06:31:12;26.05;;;12.63;;
58446;SDS011;44240;51.840;7.258;2023-11-18T06:33:40;31.77;;;13.27;;
58446;SDS011;44240;51.840;7.258;2023-11-18T06:38:43;28.10;;;14.38;;
58446;SDS011;44240;51.840;7.258;2023-11-18T06:41:10;27.85;;;12.73;;
58446;SDS011;44240;51.840;7.258;2023-11-18T06:43:39;27.38;;;13.02;;
58446;SDS011;44240;51.840;7.258;2023-11-18T06:46:29;26.52;;;12.45;;
58446;SDS011;44240;51.840;7.258;2023-11-18T06:49:01;27.83;;;12.82;;
58446;SDS011;44240;51.840;7.258;2023-11-18T06:51:33;26.08;;;13.95;;
58446;SDS011;44240;51.840;7.258;2023-11-18T06:54:01;28.60;;;12.27;;
58446;SDS011;44240;51.840;7.258;2023-11-18T06:56:41;23.70;;;12.23;;
58446;SDS011;44240;51.840;7.258;2023-11-18T06:59:12;25.45;;;12.95;;
58446;SDS011;44240;51.840;7.258;2023-11-18T07:01:40;28.33;;;13.25;;
58446;SDS011;44240;51.840;7.258;2023-11-18T07:04:08;29.58;;;14.43;;
58446;SDS011;44240;51.840;7.258;2023-11-18T07:06:36;31.88;;;13.30;;
58446;SDS011;44240;51.840;7.258;2023-11-18T07:09:06;27.30;;;12.20;;
58446;SDS011;44240;51.840;7.258;2023-11-18T07:11:43;29.90;;;13.68;;
58446;SDS011;44240;51.840;7.258;2023-11-18T07:14:10;32.63;;;15.13;;
58446;SDS011;44240;51.840;7.258;2023-11-18T07:16:38;32.97;;;14.60;;
58446;SDS011;44240;51.840;7.258;2023-11-18T07:19:05;31.58;;;14.32;;
58446;SDS011;44240;51.840;7.258;2023-11-18T07:21:33;26.08;;;14.38;;
58446;SDS011;44240;51.840;7.258;2023-11-18T07:24:00;29.30;;;14.02;;
58446;SDS011;44240;51.840;7.258;2023-11-18T07:26:28;25.90;;;13.05;;
58446;SDS011;44240;51.840;7.258;2023-11-18T07:28:55;29.38;;;14.38;;
58446;SDS011;44240;51.840;7.258;2023-11-18T07:31:22;30.70;;;13.75;;
58446;SDS011;44240;51.840;7.258;2023-11-18T07:33:50;35.63;;;14.35;;
58446;SDS011;44240;51.840;7.258;2023-11-18T07:36:18;30.95;;;14.80;;
58446;SDS011;44240;51.840;7.258;2023-11-18T07:38:48;29.25;;;14.43;;
58446;SDS011;44240;51.840;7.258;2023-11-18T07:41:16;33.42;;;15.05;;
58446;SDS011;44240;51.840;7.258;2023-11-18T07:43:54;31.30;;;14.13;;
58446;SDS011;44240;51.840;7.258;2023-11-18T07:46:22;29.73;;;14.00;;
58446;SDS011;44240;51.840;7.258;2023-11-18T07:48:50;34.90;;;15.20;;
58446;SDS011;44240;51.840;7.258;2023-11-18T07:51:21;32.50;;;15.88;;
58446;SDS011;44240;51.840;7.258;2023-11-18T07:53:49;31.88;;;15.75;;
58446;SDS011;44240;51.840;7.258;2023-11-18T07:56:16;30.85;;;15.50;;
58446;SDS011;44240;51.840;7.258;2023-11-18T07:58:43;30.30;;;14.07;;
58446;SDS011;44240;51.840;7.258;2023-11-18T08:01:14;33.03;;;14.90;;
58446;SDS011;44240;51.840;7.258;2023-11-18T08:03:44;32.03;;;13.40;;
58446;SDS011;44240;51.840;7.258;2023-11-18T08:06:11;34.75;;;16.55;;
58446;SDS011;44240;51.840;7.258;2023-11-18T08:08:38;33.13;;;16.92;;
58446;SDS011;44240;51.840;7.258;2023-11-18T08:11:05;34.85;;;17.02;;
58446;SDS011;44240;51.840;7.258;2023-11-18T08:13:33;31.20;;;16.63;;
58446;SDS011;44240;51.840;7.258;2023-11-18T08:15:59;32.08;;;15.90;;
58446;SDS011;44240;51.840;7.258;2023-11-18T08:18:27;32.53;;;16.98;;
58446;SDS011;44240;51.840;7.258;2023-11-18T08:20:57;31.48;;;15.32;;
58446;SDS011;44240;51.840;7.258;2023-11-18T08:23:26;29.75;;;15.18;;
58446;SDS011;44240;51.840;7.258;2023-11-18T08:25:54;34.65;;;15.13;;
58446;SDS011;44240;51.840;7.258;2023-11-18T08:28:21;33.40;;;14.43;;
58446;SDS011;44240;51.840;7.258;2023-11-18T08:30:48;32.88;;;14.98;;
58446;SDS011;44240;51.840;7.258;2023-11-18T08:33:19;29.98;;;15.50;;
58446;SDS011;44240;51.840;7.258;2023-11-18T08:35:48;27.55;;;14.63;;
58446;SDS011;44240;51.840;7.258;2023-11-18T08:38:15;35.20;;;15.70;;
58446;SDS011;44240;51.840;7.258;2023-11-18T08:40:42;33.22;;;15.48;;
58446;SDS011;44240;51.840;7.258;2023-11-18T08:43:09;29.13;;;13.77;;
58446;SDS011;44240;51.840;7.258;2023-11-18T08:45:38;27.08;;;13.48;;
58446;SDS011;44240;51.840;7.258;2023-11-18T08:48:05;30.17;;;15.15;;
58446;SDS011;44240;51.840;7.258;2023-11-18T08:50:34;26.98;;;13.70;;
58446;SDS011;44240;51.840;7.258;2023-11-18T08:53:02;30.77;;;15.27;;
58446;SDS011;44240;51.840;7.258;2023-11-18T08:55:32;27.33;;;13.77;;
58446;SDS011;44240;51.840;7.258;2023-11-18T08:58:16;27.88;;;13.55;;
58446;SDS011;44240;51.840;7.258;2023-11-18T09:00:51;28.58;;;13.32;;
58446;SDS011;44240;51.840;7.258;2023-11-18T09:03:25;27.80;;;12.77;;
58446;SDS011;44240;51.840;7.258;2023-11-18T09:05:55;28.33;;;14.48;;
58446;SDS011;44240;51.840;7.258;2023-11-18T09:13:23;30.98;;;13.75;;
58446;SDS011;44240;51.840;7.258;2023-11-18T09:15:58;29.45;;;13.07;;
58446;SDS011;44240;51.840;7.258;2023-11-18T09:18:26;29.80;;;14.07;;
58446;SDS011;44240;51.840;7.258;2023-11-18T09:20:57;26.00;;;13.23;;
58446;SDS011;44240;51.840;7.258;2023-11-18T09:23:27;26.08;;;13.35;;
58446;SDS011;44240;51.840;7.258;2023-11-18T09:25:55;25.63;;;13.05;;
58446;SDS011;44240;51.840;7.258;2023-11-18T09:28:26;30.00;;;14.63;;
58446;SDS011;44240;51.840;7.258;2023-11-18T09:30:56;26.95;;;12.38;;
58446;SDS011;44240;51.840;7.258;2023-11-18T09:33:24;29.10;;;13.85;;
58446;SDS011;44240;51.840;7.258;2023-11-18T09:35:52;26.02;;;12.15;;
58446;SDS011;44240;51.840;7.258;2023-11-18T09:38:26;24.92;;;12.80;;
58446;SDS011;44240;51.840;7.258;2023-11-18T09:40:57;29.98;;;14.10;;
58446;SDS011;44240;51.840;7.258;2023-11-18T09:43:29;32.13;;;13.90;;
58446;SDS011;44240;51.840;7.258;2023-11-18T09:46:03;22.98;;;12.88;;
58446;SDS011;44240;51.840;7.258;2023-11-18T09:48:42;24.95;;;11.73;;
58446;SDS011;44240;51.840;7.258;2023-11-18T09:51:14;24.30;;;12.45;;
58446;SDS011;44240;51.840;7.258;2023-11-18T09:53:49;24.45;;;11.90;;
58446;SDS011;44240;51.840;7.258;2023-11-18T09:56:30;23.42;;;11.73;;
58446;SDS011;44240;51.840;7.258;2023-11-18T10:02:24;25.30;;;12.05;;
58446;SDS011;44240;51.840;7.258;2023-11-18T10:04:52;21.20;;;11.80;;
58446;SDS011;44240;51.840;7.258;2023-11-18T10:07:23;23.98;;;11.73;;
58446;SDS011;44240;51.840;7.258;2023-11-18T10:09:56;23.52;;;11.15;;
58446;SDS011;44240;51.840;7.258;2023-11-18T10:12:24;23.52;;;10.85;;
58446;SDS011;44240;51.840;7.258;2023-11-18T10:14:53;23.42;;;10.73;;
58446;SDS011;44240;51.840;7.258;2023-11-18T10:17:20;26.23;;;11.60;;
58446;SDS011;44240;51.840;7.258;2023-11-18T10:19:51;29.98;;;13.23;;
58446;SDS011;44240;51.840;7.258;2023-11-18T10:22:24;26.33;;;12.90;;
58446;SDS011;44240;51.840;7.258;2023-11-18T10:24:52;26.13;;;12.52;;
58446;SDS011;44240;51.840;7.258;2023-11-18T10:27:26;22.70;;;12.50;;
58446;SDS011;44240;51.840;7.258;2023-11-18T10:29:57;28.15;;;12.63;;
58446;SDS011;44240;51.840;7.258;2023-11-18T10:32:29;25.27;;;12.13;;
58446;SDS011;44240;51.840;7.258;2023-11-18T10:34:58;23.92;;;11.85;;
58446;SDS011;44240;51.840;7.258;2023-11-18T10:37:25;27.35;;;12.40;;
58446;SDS011;44240;51.840;7.258;2023-11-18T10:39:54;26.05;;;12.63;;
58446;SDS011;44240;51.840;7.258;2023-11-18T10:42:21;21.55;;;11.32;;
58446;SDS011;44240;51.840;7.258;2023-11-18T10:44:54;21.80;;;10.63;;
58446;SDS011;44240;51.840;7.258;2023-11-18T10:47:26;23.58;;;11.40;;
58446;SDS011;44240;51.840;7.258;2023-11-18T10:49:55;24.55;;;11.45;;
58446;SDS011;44240;51.840;7.258;2023-11-18T10:52:22;25.80;;;12.40;;
58446;SDS011;44240;51.840;7.258;2023-11-18T10:54:52;22.40;;;12.13;;
58446;SDS011;44240;51.840;7.258;2023-11-18T10:57:20;24.83;;;11.50;;
58446;SDS011;44240;51.840;7.258;2023-11-18T11:00:01;23.33;;;10.90;;
58446;SDS011;44240;51.840;7.258;2023-11-18T11:02:41;20.85;;;11.73;;
58446;SDS011;44240;51.840;7.258;2023-11-18T11:05:08;19.75;;;10.98;;
58446;SDS011;44240;51.840;7.258;2023-11-18T11:07:43;23.63;;;11.55;;
58446;SDS011;44240;51.840;7.258;2023-11-18T11:10:10;24.75;;;11.95;;
58446;SDS011;44240;51.840;7.258;2023-11-18T11:12:42;24.30;;;11.93;;
58446;SDS011;44240;51.840;7.258;2023-11-18T11:15:21;21.27;;;10.00;;
58446;SDS011;44240;51.840;7.258;2023-11-18T11:17:52;20.58;;;9.88;;
58446;SDS011;44240;51.840;7.258;2023-11-18T11:20:22;22.65;;;11.57;;
58446;SDS011;44240;51.840;7.258;2023-11-18T11:23:01;24.42;;;11.57;;
58446;SDS011;44240;51.840;7.258;2023-11-18T11:28:21;21.25;;;10.93;;
58446;SDS011;44240;51.840;7.258;2023-11-18T11:33:43;23.60;;;9.98;;
58446;SDS011;44240;51.840;7.258;2023-11-18T11:36:15;19.27;;;9.45;;
58446;SDS011;44240;51.840;7.258;2023-11-18T11:38:52;20.65;;;9.90;;
58446;SDS011;44240;51.840;7.258;2023-11-18T11:41:23;20.42;;;10.18;;
58446;SDS011;44240;51.840;7.258;2023-11-18T11:43:53;23.02;;;11.57;;
58446;SDS011;44240;51.840;7.258;2023-11-18T11:46:24;23.52;;;11.52;;
58446;SDS011;44240;51.840;7.258;2023-11-18T11:49:02;18.60;;;9.90;;
58446;SDS011;44240;51.840;7.258;2023-11-18T11:51:48;18.52;;;9.65;;
58446;SDS011;44240;51.840;7.258;2023-11-18T11:54:23;20.90;;;9.38;;
58446;SDS011;44240;51.840;7.258;2023-11-18T11:56:56;19.33;;;10.63;;
58446;SDS011;44240;51.840;7.258;2023-11-18T11:59:36;17.13;;;10.35;;
58446;SDS011;44240;51.840;7.258;2023-11-18T12:02:22;20.33;;;10.30;;
58446;SDS011;44240;51.840;7.258;2023-11-18T12:04:55;19.67;;;9.98;;
58446;SDS011;44240;51.840;7.258;2023-11-18T12:07:25;19.38;;;10.05;;
58446;SDS011;44240;51.840;7.258;2023-11-18T12:09:58;18.45;;;9.75;;
58446;SDS011;44240;51.840;7.258;2023-11-18T12:12:27;19.10;;;10.57;;
58446;SDS011;44240;51.840;7.258;2023-11-18T12:14:55;16.63;;;10.65;;
58446;SDS011;44240;51.840;7.258;2023-11-18T12:17:24;19.65;;;11.80;;
58446;SDS011;44240;51.840;7.258;2023-11-18T12:19:58;26.45;;;11.50;;
58446;SDS011;44240;51.840;7.258;2023-11-18T12:22:25;20.05;;;10.38;;
58446;SDS011;44240;51.840;7.258;2023-11-18T12:35:27;17.30;;;10.02;;
58446;SDS011;44240;51.840;7.258;2023-11-18T12:41:00;14.38;;;8.18;;
58446;SDS011;44240;51.840;7.258;2023-11-18T12:43:47;16.30;;;8.88;;
58446;SDS011;44240;51.840;7.258;2023-11-18T12:49:09;18.40;;;9.25;;
58446;SDS011;44240;51.840;7.258;2023-11-18T12:51:44;16.08;;;8.88;;
58446;SDS011;44240;51.840;7.258;2023-11-18T12:54:12;17.42;;;8.23;;
58446;SDS011;44240;51.840;7.258;2023-11-18T12:56:39;18.77;;;8.95;;
58446;SDS011;44240;51.840;7.258;2023-11-18T12:59:10;19.75;;;8.13;;
58446;SDS011;44240;51.840;7.258;2023-11-18T13:01:39;15.95;;;8.45;;
58446;SDS011;44240;51.840;7.258;2023-11-18T13:04:08;19.83;;;9.30;;
58446;SDS011;44240;51.840;7.258;2023-11-18T13:06:35;18.85;;;9.07;;
58446;SDS011;44240;51.840;7.258;2023-11-18T13:09:02;15.55;;;9.00;;
58446;SDS011;44240;51.840;7.258;2023-11-18T13:11:36;15.77;;;8.48;;
58446;SDS011;44240;51.840;7.258;2023-11-18T13:14:05;17.20;;;9.52;;
58446;SDS011;44240;51.840;7.258;2023-11-18T13:16:32;29.05;;;14.20;;
58446;SDS011;44240;51.840;7.258;2023-11-18T13:18:59;28.52;;;13.27;;
58446;SDS011;44240;51.840;7.258;2023-11-18T13:21:26;34.30;;;15.55;;
58446;SDS011;44240;51.840;7.258;2023-11-18T13:23:55;20.48;;;10.75;;
58446;SDS011;44240;51.840;7.258;2023-11-18T13:26:22;20.65;;;10.18;;
58446;SDS011;44240;51.840;7.258;2023-11-18T13:28:50;16.50;;;8.85;;
58446;SDS011;44240;51.840;7.258;2023-11-18T13:31:17;19.00;;;8.98;;
58446;SDS011;44240;51.840;7.258;2023-11-18T13:33:46;15.55;;;7.72;;
58446;SDS011;44240;51.840;7.258;2023-11-18T13:36:15;11.70;;;6.95;;
58446;SDS011;44240;51.840;7.258;2023-11-18T13:38:42;14.02;;;6.90;;
58446;SDS011;44240;51.840;7.258;2023-11-18T13:41:10;14.35;;;7.82;;
58446;SDS011;44240;51.840;7.258;2023-11-18T13:43:42;11.27;;;6.43;;
58446;SDS011;44240;51.840;7.258;2023-11-18T13:46:11;12.18;;;6.68;;
58446;SDS011;44240;51.840;7.258;2023-11-18T13:48:40;20.38;;;9.00;;
58446;SDS011;44240;51.840;7.258;2023-11-18T13:51:08;13.70;;;7.13;;
58446;SDS011;44240;51.840;7.258;2023-11-18T13:53:39;13.32;;;7.20;;
58446;SDS011;44240;51.840;7.258;2023-11-18T13:56:07;9.43;;;6.88;;
58446;SDS011;44240;51.840;7.258;2023-11-18T13:58:39;14.75;;;8.57;;
58446;SDS011;44240;51.840;7.258;2023-11-18T14:01:06;16.70;;;11.48;;
58446;SDS011;44240;51.840;7.258;2023-11-18T14:03:34;17.08;;;13.23;;
58446;SDS011;44240;51.840;7.258;2023-11-18T14:06:05;17.20;;;10.23;;
58446;SDS011;44240;51.840;7.258;2023-11-18T14:08:33;15.73;;;9.45;;
58446;SDS011;44240;51.840;7.258;2023-11-18T14:11:03;21.90;;;8.63;;
58446;SDS011;44240;51.840;7.258;2023-11-18T14:13:32;12.27;;;6.85;;
58446;SDS011;44240;51.840;7.258;2023-11-18T14:16:01;19.45;;;7.18;;
58446;SDS011;44240;51.840;7.258;2023-11-18T14:18:29;13.55;;;7.35;;
58446;SDS011;44240;51.840;7.258;2023-11-18T14:20:56;16.65;;;7.75;;
58446;SDS011;44240;51.840;7.258;2023-11-18T14:23:23;17.73;;;6.03;;
58446;SDS011;44240;51.840;7.258;2023-11-18T14:25:51;10.45;;;7.15;;
58446;SDS011;44240;51.840;7.258;2023-11-18T14:28:18;22.00;;;7.35;;
58446;SDS011;44240;51.840;7.258;2023-11-18T14:30:45;14.85;;;7.72;;
58446;SDS011;44240;51.840;7.258;2023-11-18T14:33:12;17.70;;;6.53;;
58446;SDS011;44240;51.840;7.258;2023-11-18T14:35:39;24.55;;;7.20;;
58446;SDS011;44240;51.840;7.258;2023-11-18T14:38:10;11.98;;;5.75;;
58446;SDS011;44240;51.840;7.258;2023-11-18T14:40:39;13.63;;;6.25;;
58446;SDS011;44240;51.840;7.258;2023-11-18T14:43:07;12.68;;;5.85;;
58446;SDS011;44240;51.840;7.258;2023-11-18T14:45:34;11.52;;;5.70;;
58446;SDS011;44240;51.840;7.258;2023-11-18T14:48:03;10.30;;;5.72;;
58446;SDS011;44240;51.840;7.258;2023-11-18T14:50:31;10.80;;;5.65;;
58446;SDS011;44240;51.840;7.258;2023-11-18T14:52:58;13.27;;;6.53;;
58446;SDS011;44240;51.840;7.258;2023-11-18T14:55:29;12.95;;;5.82;;
58446;SDS011;44240;51.840;7.258;2023-11-18T14:57:56;12.20;;;6.03;;
58446;SDS011;44240;51.840;7.258;2023-11-18T15:00:23;11.05;;;5.20;;
58446;SDS011;44240;51.840;7.258;2023-11-18T15:02:54;14.02;;;6.07;;
58446;SDS011;44240;51.840;7.258;2023-11-18T15:05:22;12.65;;;6.30;;
58446;SDS011;44240;51.840;7.258;2023-11-18T15:07:51;19.67;;;7.30;;
58446;SDS011;44240;51.840;7.258;2023-11-18T15:10:20;20.05;;;6.68;;
58446;SDS011;44240;51.840;7.258;2023-11-18T15:12:48;22.20;;;7.93;;